Data for 01/26/2017

Time Sea-Level Adjusted Pressure Absolute Pressure Temperature Relative Humidity Dew Point   
(mb) (inHg) (mb) (inHg) (C) (F) (%) (C) (F)
00:05 1021 30.15 850 25.1 -6.5 20.4 62 -12.5 9.5
00:10 1021 30.15 850 25.1 -6.9 19.6 64 -12.7 9.2
00:15 1021 30.15 850 25.1 -6.9 19.5 64 -12.7 9.2
00:20 1021 30.15 850 25.1 -7 19.4 64 -12.7 9.1
00:25 1021 30.15 850 25.1 -6.9 19.6 65 -12.4 9.6
00:30 1021 30.15 850 25.1 -6.8 19.8 64 -12.5 9.5
00:35 1021 30.15 850 25.1 -6.7 19.9 64 -12.5 9.5
00:40 1021 30.15 850 25.1 -6.7 20 65 -12.3 9.9
00:45 1021 30.15 850 25.1 -6.7 20 65 -12.2 10
00:50 1021 30.15 850 25.1 -6.6 20 65 -12.1 10.2
00:55 1021 30.15 850 25.1 -6.8 19.8 66 -12 10.3
01:00 1021 30.15 850 25.1 -6.8 19.8 66 -12.1 10.2
01:05 1021 30.15 850 25.1 -6.7 20 65 -12.2 10.1
01:10 1021 30.15 850 25.1 -6.6 20.1 66 -12 10.4
01:15 1021 30.15 850 25.1 -6.7 20 66 -12 10.4
01:20 1021 30.15 850 25.1 -6.8 19.7 65 -12.4 9.6
01:25 1021 30.15 850 25.1 -6.8 19.9 65 -12.3 9.8
01:30 1021 30.15 850 25.1 -6.7 19.9 63 -12.7 9.2
01:35 1021 30.15 850 25.1 -6.9 19.6 65 -12.4 9.7
01:40 1021 30.15 850 25.1 -7.1 19.1 65 -12.6 9.2
01:45 1021 30.15 850 25.1 -7.1 19.1 65 -12.7 9.1
01:50 1021 30.15 850 25.1 -7.1 19.2 65 -12.6 9.3
01:55 1021 30.15 850 25.1 -7.2 19 66 -12.6 9.3
02:00 1021 30.15 850 25.1 -7.2 19.1 66 -12.5 9.4
02:05 1021 30.15 850 25.1 -7.1 19.2 64 -12.8 9
02:10 1021 30.15 850 25.1 -7.1 19.3 64 -12.7 9.1
02:15 1021 30.15 850 25.1 -6.9 19.6 64 -12.7 9.2
02:20 1021 30.15 850 25.1 -6.8 19.7 63 -12.7 9.2
02:25 1021 30.15 850 25.1 -6.8 19.7 64 -12.5 9.5
02:30 1021 30.15 850 25.1 -6.9 19.6 64 -12.5 9.4
02:35 1021 30.15 850 25.1 -7.1 19.2 65 -12.5 9.4
02:40 1021 30.15 851 25.13 -7.2 19.1 66 -12.5 9.5
02:45 1021 30.15 851 25.13 -7.2 19.1 65 -12.6 9.3
02:50 1021 30.15 851 25.13 -7 19.4 66 -12.3 9.8
02:55 1021 30.15 851 25.13 -7 19.4 64 -12.7 9.2
03:00 1021 30.15 851 25.13 -6.9 19.7 63 -12.8 9
03:05 1021 30.15 851 25.13 -6.8 19.7 67 -12 10.4
03:10 1021 30.15 851 25.13 -7 19.4 67 -12 10.3
03:15 1021 30.15 851 25.13 -7.2 19.1 68 -12.1 10.3
03:20 1021 30.15 851 25.13 -7.1 19.2 67 -12.3 9.8
03:25 1021 30.15 851 25.13 -6.9 19.5 68 -11.9 10.5
03:30 1021 30.15 851 25.13 -7.1 19.2 69 -11.8 10.8
03:35 1021 30.15 851 25.13 -7.4 18.7 71 -11.7 10.9
03:40 1021 30.15 851 25.13 -7.6 18.4 70 -12.2 10.1
03:45 1021 30.15 851 25.13 -7.5 18.5 71 -12 10.5
03:50 1021 30.15 851 25.13 -7.6 18.2 70 -12.2 10
03:55 1021 30.15 851 25.13 -7.7 18.1 71 -12.1 10.2
04:00 1022 30.18 851 25.13 -7.7 18.1 71 -12.1 10.3
04:05 1022 30.18 851 25.13 -7.6 18.3 70 -12.1 10.2
04:10 1022 30.18 851 25.13 -7.4 18.7 69 -12.1 10.2
04:15 1022 30.18 851 25.13 -7.3 18.9 67 -12.3 9.9
04:20 1022 30.18 851 25.13 -7 19.4 67 -12.1 10.2
04:25 1022 30.18 851 25.13 -6.9 19.5 66 -12.2 10.1
04:30 1022 30.18 851 25.13 -7 19.4 63 -12.8 8.9
04:35 1022 30.18 851 25.13 -6.9 19.6 63 -12.8 9
04:40 1022 30.18 851 25.13 -6.9 19.5 64 -12.7 9.2
04:45 1022 30.18 851 25.13 -7 19.4 63 -13 8.7
04:50 1022 30.18 851 25.13 -7 19.3 64 -12.7 9.2
04:55 1022 30.18 851 25.13 -7.2 19.1 65 -12.7 9.2
05:00 1022 30.18 851 25.13 -7.1 19.3 64 -12.8 9
05:05 1022 30.18 851 25.13 -7.2 19.1 64 -12.9 8.8
05:10 1022 30.18 851 25.13 -7.2 19.1 63 -13 8.5
05:15 1022 30.18 851 25.13 -7.2 19.1 63 -13.1 8.5
05:20 1022 30.18 851 25.13 -7.2 19.1 63 -13.1 8.4
05:25 1022 30.18 851 25.13 -7.3 19 63 -13.1 8.4
05:30 1022 30.18 851 25.13 -7.3 18.8 63 -13.2 8.3
05:35 1022 30.18 851 25.13 -7.4 18.7 63 -13.2 8.3
05:40 1022 30.18 851 25.13 -7.4 18.7 64 -13.1 8.4
05:45 1022 30.18 851 25.13 -7.3 18.8 63 -13.2 8.3
05:50 1022 30.18 851 25.13 -7.3 18.9 63 -13.2 8.2
05:55 1022 30.18 851 25.13 -7.2 19.1 63 -13 8.6
06:00 1022 30.18 851 25.13 -7.2 19.1 63 -13 8.6
06:05 1022 30.18 851 25.13 -7.2 19.1 63 -13 8.6
06:10 1022 30.18 851 25.13 -7.1 19.2 63 -13.1 8.5
06:15 1022 30.18 851 25.13 -7.1 19.3 63 -13 8.7
06:20 1022 30.18 851 25.13 -7 19.4 63 -12.9 8.8
06:25 1022 30.18 852 25.16 -6.9 19.5 62 -13.1 8.4
06:30 1022 30.18 852 25.16 -6.9 19.5 63 -12.9 8.8
06:35 1022 30.18 852 25.16 -6.9 19.5 63 -12.8 9
06:40 1022 30.18 852 25.16 -6.8 19.8 62 -13 8.7
06:45 1022 30.18 852 25.16 -6.8 19.8 62 -12.9 8.8
06:50 1023 30.21 852 25.16 -6.8 19.8 63 -12.7 9.1
06:55 1023 30.21 852 25.16 -6.8 19.8 62 -12.8 8.9
07:00 1023 30.21 852 25.16 -6.8 19.8 64 -12.5 9.6
07:05 1023 30.21 852 25.16 -7 19.3 66 -12.3 9.9
07:10 1023 30.21 852 25.16 -7.3 18.9 67 -12.4 9.7
07:15 1023 30.21 852 25.16 -7.3 18.9 67 -12.4 9.7
07:20 1023 30.21 852 25.16 -7.1 19.2 66 -12.4 9.7
07:25 1023 30.21 852 25.16 -7.1 19.2 67 -12.2 10.1
07:30 1023 30.21 852 25.16 -7.1 19.2 66 -12.5 9.5
07:35 1023 30.21 852 25.16 -6.9 19.5 64 -12.7 9.2
07:40 1023 30.21 852 25.16 -6.8 19.7 64 -12.6 9.3
07:45 1023 30.21 852 25.16 -6.8 19.7 63 -12.7 9.2
07:50 1023 30.21 852 25.16 -6.9 19.6 62 -13 8.6
07:55 1023 30.21 852 25.16 -6.8 19.7 62 -12.9 8.8
08:00 1023 30.21 852 25.16 -6.8 19.7 62 -12.8 8.9
08:05 1023 30.21 852 25.16 -6.8 19.8 62 -12.9 8.7
08:10 1023 30.21 852 25.16 -6.7 19.9 62 -12.9 8.8
08:15 1023 30.21 852 25.16 -6.7 19.9 62 -12.9 8.9
08:20 1023 30.21 852 25.16 -6.7 19.9 62 -12.8 8.9
08:25 1023 30.21 852 25.16 -6.6 20.1 62 -12.8 9
08:30 1023 30.21 852 25.16 -6.6 20.1 62 -12.8 9
08:35 1023 30.21 852 25.16 -6.6 20.2 61 -12.8 8.9
08:40 1023 30.21 852 25.16 -6.5 20.3 60 -13 8.6
08:45 1023 30.21 852 25.16 -6.3 20.7 61 -12.6 9.3
08:50 1023 30.21 852 25.16 -6.1 21 60 -12.8 9
08:55 1023 30.21 852 25.16 -6 21.2 59 -12.7 9.1
09:00 1023 30.21 853 25.19 -5.9 21.4 58 -12.8 8.9
09:05 1023 30.21 853 25.19 -5.8 21.6 59 -12.6 9.3
09:10 1023 30.21 853 25.19 -5.7 21.7 59 -12.6 9.4
09:15 1023 30.21 853 25.19 -5.6 21.9 58 -12.6 9.2
09:20 1024 30.24 853 25.19 -5.4 22.4 57 -12.6 9.3
09:25 1024 30.24 853 25.19 -5.2 22.6 56 -12.6 9.3
09:30 1024 30.24 853 25.19 -5.2 22.6 56 -12.7 9.2
09:35 1024 30.24 853 25.19 -5.2 22.6 56 -12.8 9
09:40 1024 30.24 853 25.19 -5.3 22.5 55 -12.9 8.8
09:45 1024 30.24 853 25.19 -5.2 22.6 57 -12.6 9.4
09:50 1024 30.24 853 25.19 -5.1 22.8 55 -12.7 9.1
09:55 1024 30.24 853 25.19 -5 22.9 55 -12.8 9
10:00 1024 30.24 853 25.19 -5 23 56 -12.5 9.4
10:05 1024 30.24 853 25.19 -4.7 23.5 54 -12.6 9.4
10:10 1024 30.24 853 25.19 -4.5 23.9 54 -12.6 9.4
10:15 1024 30.24 853 25.19 -4.5 23.9 54 -12.5 9.5
10:20 1024 30.24 853 25.19 -4.4 24 53 -12.7 9.1
10:25 1024 30.24 854 25.22 -4.4 24.1 53 -12.5 9.4
10:30 1024 30.24 854 25.22 -4.3 24.3 52 -12.7 9.1
10:35 1024 30.24 854 25.22 -4 24.8 52 -12.5 9.4
10:40 1024 30.24 854 25.22 -3.7 25.3 52 -12.2 10
10:45 1024 30.24 854 25.22 -3.7 25.3 52 -12.2 10.1
10:50 1025 30.27 854 25.22 -3.5 25.7 50 -12.6 9.4
10:55 1025 30.27 854 25.22 -3.3 26.1 50 -12.4 9.7
11:00 1025 30.27 854 25.22 -3.2 26.2 49 -12.3 9.8
11:05 1025 30.27 854 25.22 -3.2 26.3 51 -12.1 10.3
11:10 1025 30.27 854 25.22 -3.1 26.4 49 -12.3 9.8
11:15 1025 30.27 854 25.22 -3.3 26 50 -12.3 9.9
11:20 1025 30.27 854 25.22 -3.1 26.4 49 -12.3 9.9
11:25 1025 30.27 854 25.22 -2.9 26.8 48 -12.5 9.5
11:30 1025 30.27 854 25.22 -2.4 27.6 48 -12.1 10.2
11:35 1025 30.27 854 25.22 -2.1 28.1 45 -12.6 9.4
11:40 1025 30.27 854 25.22 -2.4 27.7 46 -12.6 9.3
11:45 1025 30.27 854 25.22 -3 26.6 49 -12.4 9.7
11:50 1025 30.27 854 25.22 -2.8 26.9 47 -12.7 9.1
11:55 1025 30.27 854 25.22 -2.5 27.5 46 -12.5 9.4
12:00 1025 30.27 854 25.22 -2.8 27 49 -12 10.4
12:05 1025 30.27 854 25.22 -3.3 26.1 50 -12.3 9.9
12:10 1025 30.27 854 25.22 -3.3 26.1 50 -12.4 9.7
12:15 1025 30.27 854 25.22 -3.2 26.2 49 -12.6 9.4
12:20 1025 30.27 854 25.22 -2.6 27.3 46 -12.8 8.9
12:25 1025 30.27 854 25.22 -2.5 27.6 47 -12.4 9.7
12:30 1025 30.27 854 25.22 -2.4 27.8 46 -12.6 9.4
12:35 1025 30.27 854 25.22 -2.5 27.5 47 -12.3 9.9
12:40 1025 30.27 854 25.22 -2.7 27.1 47 -12.5 9.4
12:45 1025 30.27 854 25.22 -3 26.6 48 -12.4 9.7
12:50 1025 30.27 854 25.22 -3.2 26.3 50 -12.2 10.1
12:55 1025 30.27 854 25.22 -3.3 26.1 50 -12.3 9.8
13:00 1025 30.27 854 25.22 -3.3 26.1 49 -12.6 9.3
13:05 1025 30.27 854 25.22 -3.2 26.3 49 -12.5 9.6
13:10 1025 30.27 854 25.22 -2.9 26.9 48 -12.5 9.5
13:15 1025 30.27 854 25.22 -2.5 27.6 46 -12.6 9.4
13:20 1025 30.27 854 25.22 -2.3 27.8 45 -12.7 9.2
13:25 1025 30.27 854 25.22 -2 28.4 44 -12.8 8.9
13:30 1025 30.27 854 25.22 -1.9 28.6 45 -12.4 9.7
13:35 1025 30.27 854 25.22 -1.4 29.4 42 -12.7 9.2
13:40 1025 30.27 854 25.22 -1.1 30 43 -12.2 10
13:45 1025 30.27 854 25.22 -1.2 29.9 43 -12.2 10
13:50 1025 30.27 854 25.22 -0.4 31.3 40 -12.6 9.4
13:55 1025 30.27 854 25.22 -0.1 31.8 39 -12.6 9.4
14:00 1025 30.27 854 25.22 -0.5 31 41 -12.1 10.1
14:05 1025 30.27 854 25.22 -0.5 31.1 39 -12.7 9.2
14:10 1025 30.27 854 25.22 -0.6 30.8 39 -12.9 8.8
14:15 1025 30.27 854 25.22 -0.7 30.7 41 -12.4 9.6
14:20 1025 30.27 854 25.22 -0.3 31.4 39 -12.7 9.1
14:25 1025 30.27 854 25.22 0.2 32.4 36 -13.3 8.1
14:30 1025 30.27 854 25.22 0.3 32.6 36 -13.2 8.2
14:35 1025 30.27 854 25.22 -0.2 31.6 39 -12.7 9.2
14:40 1025 30.27 855 25.25 -0.8 30.6 41 -12.6 9.3
14:45 1025 30.27 855 25.25 -1.4 29.5 42 -12.6 9.3
14:50 1025 30.27 855 25.25 -1.8 28.8 43 -12.7 9.1
14:55 1025 30.27 855 25.25 -1.6 29.1 42 -13 8.7
15:00 1025 30.27 855 25.25 -1.6 29.2 42 -12.9 8.7
15:05 1026 30.3 855 25.25 -1.9 28.7 43 -12.8 9
15:10 1026 30.3 855 25.25 -2.1 28.3 44 -12.9 8.8
15:15 1026 30.3 855 25.25 -2.1 28.3 42 -13.4 7.9
15:20 1026 30.3 855 25.25 -2.2 28.1 46 -12.4 9.7
15:25 1026 30.3 855 25.25 -2.3 27.9 45 -12.6 9.2
15:30 1026 30.3 855 25.25 -2.2 28 45 -12.5 9.4
15:35 1026 30.3 855 25.25 -2.1 28.2 44 -12.9 8.9
15:40 1026 30.3 855 25.25 -2.3 27.8 45 -12.8 9
15:45 1026 30.3 855 25.25 -2.9 26.9 48 -12.5 9.5
15:50 1026 30.3 855 25.25 -2.9 26.8 49 -12.1 10.3
15:55 1026 30.3 855 25.25 -2.9 26.8 48 -12.6 9.4
16:00 1026 30.3 855 25.25 -3 26.6 49 -12.4 9.7
16:05 1026 30.3 855 25.25 -3.5 25.8 51 -12.3 9.9
16:10 1026 30.3 855 25.25 -3.7 25.4 51 -12.5 9.5
16:15 1026 30.3 855 25.25 -3.6 25.6 50 -12.5 9.5
16:20 1026 30.3 856 25.28 -3.3 26 49 -12.6 9.2
16:25 1026 30.3 856 25.28 -3.6 25.5 50 -12.6 9.3
16:30 1026 30.3 856 25.28 -3.6 25.5 50 -12.6 9.2
16:35 1026 30.3 856 25.28 -3.5 25.7 50 -12.6 9.4
16:40 1026 30.3 856 25.28 -3.4 25.9 49 -12.7 9.1
16:45 1026 30.3 856 25.28 -3.3 26 50 -12.4 9.6
16:50 1026 30.3 856 25.28 -3 26.6 47 -12.8 8.9
16:55 1026 30.3 856 25.28 -2.8 27 45 -13 8.6
17:00 1027 30.33 856 25.28 -2.7 27.1 45 -13 8.6
17:05 1027 30.33 856 25.28 -2.8 26.9 45 -13 8.5
17:10 1027 30.33 856 25.28 -3.1 26.5 48 -12.5 9.4
17:15 1027 30.33 856 25.28 -3.6 25.5 53 -11.9 10.5
17:20 1027 30.33 856 25.28 -4.1 24.7 53 -12.2 10
17:25 1027 30.33 856 25.28 -4.5 24 55 -12.1 10.3
17:30 1027 30.33 856 25.28 -4.9 23.2 55 -12.6 9.3
17:35 1027 30.33 856 25.28 -4.8 23.4 53 -12.8 8.9
17:40 1027 30.33 856 25.28 -4.6 23.7 54 -12.5 9.5
17:45 1027 30.33 856 25.28 -4.5 23.8 53 -12.7 9.1
17:50 1027 30.33 856 25.28 -4.7 23.6 52 -13.1 8.4
17:55 1027 30.33 856 25.28 -4.7 23.5 53 -12.9 8.7
18:00 1027 30.33 856 25.28 -4.8 23.4 53 -12.9 8.7
18:05 1027 30.33 856 25.28 -5.1 22.8 53 -13.2 8.3
18:10 1027 30.33 856 25.28 -5.1 22.8 53 -13.2 8.2
18:15 1027 30.33 856 25.28 -5 22.9 52 -13.4 7.8
18:20 1027 30.33 856 25.28 -5.7 21.7 55 -13.4 7.8
18:25 1027 30.33 856 25.28 -6.1 21.1 55 -13.8 7.2
18:30 1027 30.33 856 25.28 -6.1 21.1 55 -13.7 7.3
18:35 1027 30.33 856 25.28 -6 21.1 54 -13.8 7.1
18:40 1027 30.33 856 25.28 -6.3 20.7 54 -14.1 6.7
18:45 1027 30.33 856 25.28 -6.4 20.4 54 -14.2 6.4
18:50 1027 30.33 856 25.28 -6.3 20.8 53 -14.3 6.2
18:55 1027 30.33 856 25.28 -6 21.1 52 -14.3 6.2
19:00 1027 30.33 856 25.28 -6.1 21 53 -14.2 6.4
19:05 1027 30.33 856 25.28 -6.1 21 52 -14.4 6
19:10 1027 30.33 856 25.28 -5.9 21.3 52 -14.3 6.3
19:15 1027 30.33 856 25.28 -6.2 20.8 54 -14 6.8
19:20 1027 30.33 856 25.28 -6.4 20.5 55 -14.1 6.7
19:25 1027 30.33 856 25.28 -6.5 20.2 54 -14.4 6.2
19:30 1027 30.33 856 25.28 -6.7 20 54 -14.4 6.1
19:35 1027 30.33 856 25.28 -6.8 19.8 55 -14.5 6
19:40 1027 30.33 856 25.28 -7 19.5 56 -14.4 6
19:45 1027 30.33 856 25.28 -6.9 19.5 55 -14.5 6
19:50 1027 30.33 856 25.28 -6.6 20.1 54 -14.4 6.1
19:55 1027 30.33 856 25.28 -6.4 20.5 55 -13.9 6.9
20:00 1027 30.33 856 25.28 -6.4 20.5 55 -14.1 6.6
20:05 1027 30.33 856 25.28 -6.5 20.3 55 -14.1 6.6
20:10 1027 30.33 856 25.28 -6.6 20 56 -14.1 6.6
20:15 1027 30.33 856 25.28 -6.7 20 55 -14.2 6.5
20:20 1027 30.33 857 25.31 -6.7 20 55 -14.3 6.3
20:25 1027 30.33 857 25.31 -6.8 19.7 56 -14.2 6.4
20:30 1027 30.33 857 25.31 -7 19.5 56 -14.4 6.1
20:35 1027 30.33 857 25.31 -6.9 19.5 55 -14.5 5.8
20:40 1027 30.33 857 25.31 -7.1 19.3 55 -14.6 5.8
20:45 1027 30.33 857 25.31 -7.1 19.3 56 -14.5 5.9
20:50 1027 30.33 857 25.31 -7.1 19.2 56 -14.4 6.1
20:55 1027 30.33 857 25.31 -7.2 19.1 56 -14.5 6
21:00 1027 30.33 857 25.31 -7.1 19.3 55 -14.7 5.6
21:05 1027 30.33 857 25.31 -6.8 19.8 54 -14.7 5.5
21:10 1027 30.33 857 25.31 -6.7 19.9 54 -14.5 5.8
21:15 1028 30.36 857 25.31 -7 19.4 55 -14.5 5.9
21:20 1028 30.36 857 25.31 -7.1 19.2 55 -14.8 5.4
21:25 1027 30.33 857 25.31 -7.1 19.3 54 -15 5.1
21:30 1027 30.33 857 25.31 -7.1 19.2 55 -14.7 5.5
21:35 1028 30.36 857 25.31 -6.9 19.6 54 -14.7 5.6
21:40 1028 30.36 857 25.31 -6.6 20.1 53 -14.6 5.8
21:45 1027 30.33 857 25.31 -6.5 20.3 53 -14.6 5.8
21:50 1028 30.36 857 25.31 -6.4 20.4 53 -14.6 5.7
21:55 1028 30.36 857 25.31 -6.4 20.5 52 -14.6 5.7
22:00 1028 30.36 857 25.31 -6.4 20.6 52 -14.6 5.8
22:05 1028 30.36 857 25.31 -6.6 20.1 53 -14.6 5.7
22:10 1028 30.36 857 25.31 -6.9 19.6 53 -14.8 5.3
22:15 1028 30.36 857 25.31 -7.1 19.3 55 -14.6 5.7
22:20 1028 30.36 857 25.31 -7.6 18.4 56 -15 5
22:25 1028 30.36 857 25.31 -7.7 18.2 56 -15.1 4.9
22:30 1028 30.36 857 25.31 -7.9 17.8 57 -15 4.9
22:35 1028 30.36 857 25.31 -7.9 17.7 57 -15.1 4.8
22:40 1028 30.36 857 25.31 -7.8 17.9 57 -15 5
22:45 1028 30.36 857 25.31 -7.8 17.9 56 -15.1 4.9
22:50 1028 30.36 857 25.31 -7.9 17.8 57 -15 4.9
22:55 1028 30.36 857 25.31 -8.1 17.5 59 -14.8 5.4
23:00 1028 30.36 857 25.31 -8.5 16.7 60 -14.9 5.2
23:05 1028 30.36 857 25.31 -8.7 16.3 63 -14.6 5.7
23:10 1028 30.36 857 25.31 -8.8 16.2 62 -14.8 5.3
23:15 1028 30.36 857 25.31 -8.8 16.2 63 -14.6 5.7
23:20 1028 30.36 858 25.34 -8.9 15.9 61 -15.1 4.8
23:25 1028 30.36 857 25.31 -9.2 15.4 63 -15 4.9
23:30 1028 30.36 858 25.34 -9 15.8 61 -15.2 4.6
23:35 1028 30.36 858 25.34 -8.6 16.5 59 -15.3 4.4
23:40 1028 30.36 858 25.34 -8.8 16.3 60 -15.1 4.8
23:45 1029 30.39 858 25.34 -9 15.9 60 -15.5 4.2
23:50 1029 30.39 858 25.34 -9 15.8 60 -15.3 4.4
23:55 1029 30.39 858 25.34 -8.9 15.9 60 -15.4 4.3
24:00 1029 30.39 858 25.34 -9 15.7 60 -15.4 4.3